Time;durP1;ratioP1;P1;durP2;ratioP2;P2;SDS_P1;SDS_P2;PMS_P1;PMS_P2;Temp;Humidity;BMP_temperature;BMP_pressure;BME280_temperature;BME280_humidity;BME280_pressure;Samples;Min_cycle;Max_cycle;Signal;HPM_P1;HPM_P2
2022/03/10 00:02:05;;;;;;;21.47;16.93;;;0.10;99.80;;;0.92;65.10;98686.56;5206866;28;20212;-54
2022/03/10 00:04:39;;;;;;;21.40;17.60;;;0.10;99.60;;;0.84;65.78;98694.19;5206304;28;20197;-57
2022/03/10 00:07:13;;;;;;;20.43;16.37;;;0.00;99.90;;;0.92;65.38;98696.63;5205639;28;20225;-58
2022/03/10 00:09:47;;;;;;;17.27;14.80;;;0.00;99.90;;;0.83;65.25;98692.44;5205146;28;20228;-53
2022/03/10 00:12:20;;;;;;;19.60;16.07;;;-0.10;99.90;;;0.80;65.91;98697.13;5205113;28;20232;-57
2022/03/10 00:14:53;;;;;;;21.97;16.07;;;-0.10;99.90;;;0.78;66.04;98703.59;5204457;28;20194;-57
2022/03/10 00:17:26;;;;;;;18.73;15.77;;;-0.10;99.90;;;0.74;65.69;98695.56;5204927;28;20197;-55
2022/03/10 00:19:59;;;;;;;22.90;16.90;;;-0.20;99.90;;;0.70;66.21;98699.38;5204504;28;20195;-57
2022/03/10 00:22:45;;;;;;;18.37;15.27;;;-0.20;99.90;;;0.63;66.27;98702.84;5205067;28;20198;-57
2022/03/10 00:25:18;;;;;;;21.03;16.60;;;-0.20;99.90;;;0.65;65.44;98700.47;5204787;28;20240;-53
2022/03/10 00:27:51;;;;;;;20.07;15.20;;;-0.20;99.90;;;0.59;65.71;98699.81;5204082;28;20811;-56
2022/03/10 00:30:24;;;;;;;22.67;16.13;;;-0.20;99.90;;;0.62;66.37;98700.16;5204793;28;20202;-55
2022/03/10 00:32:57;;;;;;;19.57;16.13;;;-0.20;99.90;;;0.59;65.80;98695.69;5204830;28;20194;-57
2022/03/10 00:35:30;;;;;;;21.33;17.53;;;-0.10;99.90;;;0.59;65.95;98707.38;5203822;28;20216;-56
2022/03/10 00:38:05;;;;;;;19.10;16.70;;;-0.20;99.70;;;0.57;65.41;98706.28;5204054;28;20237;-56
2022/03/10 00:40:38;;;;;;;22.83;17.33;;;-0.10;99.80;;;0.57;65.71;98701.28;5203274;28;20231;-55
2022/03/10 00:43:12;;;;;;;20.77;16.60;;;-0.20;99.40;;;0.58;65.13;98703.97;5204421;28;20650;-54
2022/03/10 00:45:45;;;;;;;18.67;16.07;;;-0.20;99.50;;;0.55;66.15;98703.63;5204307;28;20668;-56
2022/03/10 00:48:18;;;;;;;21.40;16.97;;;-0.10;99.90;;;0.61;65.98;98701.78;5203397;28;20316;-53
2022/03/10 00:50:51;;;;;;;20.43;16.87;;;-0.10;99.90;;;0.62;65.90;98707.69;5204244;28;20589;-55
2022/03/10 00:53:25;;;;;;;18.10;16.13;;;-0.10;99.80;;;0.56;65.14;98705.41;5204785;28;20205;-53
2022/03/10 00:55:59;;;;;;;22.23;17.33;;;-0.20;99.50;;;0.60;65.74;98711.66;5203773;28;20568;-54
2022/03/10 00:58:32;;;;;;;19.43;16.00;;;-0.20;99.80;;;0.58;66.13;98705.59;5200045;28;20222;-53
2022/03/10 01:01:05;;;;;;;21.20;16.90;;;-0.20;99.90;;;0.59;65.29;98705.75;5204360;28;20193;-53
2022/03/10 01:03:38;;;;;;;19.10;15.67;;;-0.20;99.90;;;0.59;65.66;98712.41;5204164;28;20197;-55
2022/03/10 01:06:11;;;;;;;22.10;16.00;;;-0.20;99.90;;;0.61;66.24;98706.81;5204036;28;20263;-57
2022/03/10 01:08:45;;;;;;;18.80;15.97;;;-0.20;99.90;;;0.61;66.45;98708.44;5203353;28;20229;-56
2022/03/10 01:11:18;;;;;;;19.47;15.50;;;-0.20;99.90;;;0.59;66.41;98709.88;5203143;28;20201;-55
2022/03/10 01:13:51;;;;;;;18.10;15.87;;;-0.20;99.90;;;0.56;67.07;98704.53;5204259;28;20212;-57
2022/03/10 01:16:24;;;;;;;19.17;15.13;;;-0.30;99.90;;;0.52;67.16;98712.47;5204480;28;20580;-57
2022/03/10 01:18:58;;;;;;;17.17;15.10;;;-0.30;99.90;;;0.52;66.92;98713.38;5204138;28;20704;-57
2022/03/10 01:21:31;;;;;;;18.67;16.30;;;-0.30;99.90;;;0.45;66.62;98706.75;5203566;28;20201;-56
2022/03/10 01:24:06;;;;;;;19.33;16.73;;;-0.30;99.90;;;0.48;66.86;98710.34;5203415;28;20238;-56
2022/03/10 01:26:39;;;;;;;19.63;16.83;;;-0.30;99.90;;;0.44;66.28;98715.03;5203813;28;20561;-55
2022/03/10 01:29:13;;;;;;;20.57;16.20;;;-0.30;99.90;;;0.43;66.05;98712.38;5203616;28;20234;-57
2022/03/10 01:31:46;;;;;;;17.93;15.80;;;-0.30;99.90;;;0.35;65.87;98714.03;5203719;28;20196;-56
2022/03/10 01:34:19;;;;;;;17.17;15.33;;;-0.40;99.90;;;0.37;66.54;98707.56;5203999;28;20223;-54
2022/03/10 01:36:52;;;;;;;18.17;14.47;;;-0.40;99.90;;;0.41;66.84;98712.19;5203484;28;20209;-54
2022/03/10 01:39:27;;;;;;;17.63;15.33;;;-0.40;99.90;;;0.38;66.29;98714.38;5203902;28;20222;-54
2022/03/10 01:42:00;;;;;;;19.67;16.33;;;-0.50;99.90;;;0.40;67.30;98712.91;5203294;28;20633;-55
2022/03/10 01:44:33;;;;;;;20.47;16.97;;;-0.50;99.90;;;0.33;67.69;98712.97;5203878;28;20223;-55
2022/03/10 01:47:07;;;;;;;19.97;16.00;;;-0.60;99.90;;;0.25;67.90;98700.28;5204016;28;20262;-55
2022/03/10 01:49:40;;;;;;;19.43;16.03;;;-0.60;99.90;;;0.17;68.01;98701.94;5203311;28;20221;-55
2022/03/10 01:52:14;;;;;;;18.70;15.43;;;-0.70;99.90;;;0.18;67.38;98701.22;5204003;28;20220;-56
2022/03/10 01:54:48;;;;;;;18.70;14.63;;;-0.70;99.90;;;0.19;68.40;98687.91;5202818;28;20194;-56
2022/03/10 01:57:21;;;;;;;19.87;14.47;;;-0.70;99.90;;;0.18;67.54;98692.06;5204024;28;20201;-57
2022/03/10 01:59:55;;;;;;;17.13;14.27;;;-0.70;99.90;;;0.15;68.15;98689.22;5204983;28;20209;-56
2022/03/10 02:02:28;;;;;;;16.83;14.20;;;-0.70;99.90;;;0.15;68.00;98693.34;5207818;28;20209;-55
2022/03/10 02:05:01;;;;;;;14.30;12.80;;;-0.80;99.90;;;0.04;69.09;98682.09;5207370;28;20225;-53
2022/03/10 02:10:28;;;;;;;15.40;12.20;;;-0.90;99.90;;;0.02;68.47;98695.22;5202332;28;20204;-53
2022/03/10 02:13:01;;;;;;;17.67;14.03;;;-0.90;99.90;;;-0.04;69.39;98690.41;5207648;28;20538;-54
2022/03/10 02:18:25;;;;;;;14.33;12.77;;;-1.00;99.90;;;-0.12;69.15;98693.69;5207475;28;20229;-53
2022/03/10 02:20:58;;;;;;;15.73;13.37;;;-1.00;99.90;;;-0.16;70.35;98691.56;5207388;28;20198;-55
2022/03/10 02:23:32;;;;;;;14.73;13.20;;;-1.00;99.90;;;-0.17;69.01;98694.78;5208012;28;20202;-55
2022/03/10 02:26:07;;;;;;;15.23;13.63;;;-1.00;99.90;;;-0.21;68.47;98696.06;5206411;28;20576;-56
2022/03/10 02:28:41;;;;;;;16.50;13.70;;;-1.00;99.90;;;-0.24;68.80;98695.72;5207448;28;20232;-55
2022/03/10 02:31:14;;;;;;;17.20;13.83;;;-1.00;99.90;;;-0.26;69.34;98689.63;5206684;28;20630;-56
2022/03/10 02:33:47;;;;;;;18.40;14.23;;;-1.00;99.90;;;-0.25;68.92;98691.44;5207434;28;20198;-56
2022/03/10 02:36:20;;;;;;;18.90;15.40;;;-1.00;99.90;;;-0.23;68.22;98682.44;5207095;28;20206;-56
2022/03/10 02:38:55;;;;;;;19.80;16.90;;;-1.00;99.90;;;-0.21;69.15;98698.59;5208993;28;20232;-55
2022/03/10 02:41:28;;;;;;;19.97;17.13;;;-1.00;99.90;;;-0.25;69.30;98696.47;5208050;28;20205;-56
2022/03/10 02:44:01;;;;;;;20.63;17.03;;;-1.00;99.90;;;-0.29;69.33;98696.81;5207031;28;20198;-53
2022/03/10 02:46:34;;;;;;;20.70;16.13;;;-1.00;99.90;;;-0.30;68.29;98705.09;5208136;28;20198;-57
2022/03/10 02:49:07;;;;;;;19.57;15.97;;;-1.10;99.90;;;-0.29;69.93;98701.84;5204407;28;20225;-54
2022/03/10 02:51:41;;;;;;;18.80;16.80;;;-1.10;99.90;;;-0.43;69.18;98691.88;5202181;28;20241;-54
2022/03/10 02:54:15;;;;;;;18.53;15.93;;;-1.10;99.90;;;-0.32;69.62;98706.53;5207206;28;20202;-55
2022/03/10 02:56:48;;;;;;;18.27;15.80;;;-1.10;99.90;;;-0.32;69.42;98714.94;5204920;28;20201;-53
2022/03/10 02:59:21;;;;;;;22.00;16.47;;;-1.00;99.90;;;-0.30;69.23;98715.13;5202313;28;20210;-54
2022/03/10 03:01:56;;;;;;;18.83;16.00;;;-1.00;99.90;;;-0.30;68.39;98721.06;5207327;28;20202;-58
2022/03/10 03:04:29;;;;;;;20.70;15.73;;;-1.00;99.90;;;-0.29;70.04;98715.28;5206871;28;20243;-58
2022/03/10 03:07:03;;;;;;;18.20;15.77;;;-1.00;99.90;;;-0.32;69.91;98721.59;5207020;28;20204;-56
2022/03/10 03:09:37;;;;;;;20.23;16.27;;;-1.00;99.90;;;-0.35;68.86;98716.22;5206816;28;20218;-57
2022/03/10 03:12:10;;;;;;;18.20;15.80;;;-1.00;99.90;;;-0.30;70.19;98723.56;5207674;28;20542;-58
2022/03/10 03:14:43;;;;;;;19.23;16.17;;;-1.00;99.90;;;-0.26;69.59;98733.25;5205966;28;20544;-57
2022/03/10 03:17:16;;;;;;;18.70;14.90;;;-1.00;99.90;;;-0.27;69.03;98733.06;5206801;28;20216;-58
2022/03/10 03:19:51;;;;;;;16.90;14.57;;;-1.00;99.90;;;-0.20;70.58;98733.03;5206862;28;20598;-57
2022/03/10 03:22:24;;;;;;;17.10;15.10;;;-0.90;99.90;;;-0.25;68.76;98734.13;5206145;28;20289;-58
2022/03/10 03:24:58;;;;;;;16.67;14.87;;;-0.90;99.90;;;-0.19;69.51;98739.84;5205814;28;20214;-57
2022/03/10 03:27:32;;;;;;;18.50;14.73;;;-0.90;99.90;;;-0.19;69.82;98733.94;5205694;28;20411;-56
2022/03/10 03:30:06;;;;;;;17.93;14.50;;;-0.90;99.90;;;-0.22;69.92;98731.97;5205171;28;20225;-58
2022/03/10 03:32:39;;;;;;;16.57;14.83;;;-0.90;99.90;;;-0.24;69.91;98740.94;5205838;28;20197;-57
2022/03/10 03:35:12;;;;;;;15.33;13.27;;;-0.90;99.90;;;-0.20;68.84;98738.06;5206518;28;20217;-58
2022/03/10 03:37:45;;;;;;;17.07;14.13;;;-0.90;99.90;;;-0.19;69.25;98744.88;5205618;28;20586;-58
2022/03/10 03:40:20;;;;;;;16.63;14.53;;;-1.00;99.90;;;-0.21;69.86;98741.28;5205774;28;20806;-58
2022/03/10 03:42:53;;;;;;;16.77;14.20;;;-0.90;99.90;;;-0.20;68.66;98743.09;5206202;28;20197;-56
2022/03/10 03:45:26;;;;;;;17.27;14.67;;;-0.90;99.90;;;-0.24;69.02;98740.94;5205667;28;20206;-57
2022/03/10 03:47:59;;;;;;;14.77;13.20;;;-1.00;99.90;;;-0.24;69.69;98739.31;5205462;28;20225;-58
2022/03/10 03:50:32;;;;;;;15.77;14.00;;;-0.90;99.90;;;-0.24;69.50;98738.44;5205670;28;20201;-58
2022/03/10 03:53:05;;;;;;;17.50;14.37;;;-1.00;99.90;;;-0.21;70.25;98740.41;5205810;28;20236;-58
2022/03/10 03:55:40;;;;;;;16.30;14.37;;;-0.90;99.90;;;-0.16;69.35;98740.19;5205411;28;20670;-58
2022/03/10 03:58:13;;;;;;;16.20;14.47;;;-0.90;99.90;;;-0.21;69.51;98730.34;5205743;28;20231;-58
2022/03/10 04:00:46;;;;;;;16.53;14.80;;;-0.90;99.90;;;-0.27;69.65;98733.06;5205605;28;20198;-58
2022/03/10 04:03:20;;;;;;;21.53;16.47;;;-1.00;99.90;;;-0.31;69.72;98738.47;5205590;28;20228;-57
2022/03/10 04:05:53;;;;;;;20.43;16.07;;;-1.00;99.90;;;-0.36;69.96;98737.94;5205455;28;20237;-55
2022/03/10 04:08:26;;;;;;;15.60;13.60;;;-1.10;99.90;;;-0.40;68.94;98743.34;5204932;28;20630;-56
2022/03/10 04:11:01;;;;;;;18.87;15.93;;;-1.20;99.90;;;-0.41;69.02;98740.66;5202289;28;20198;-58
2022/03/10 04:13:34;;;;;;;20.90;16.17;;;-1.20;99.90;;;-0.46;69.64;98741.03;5205419;28;20680;-57
2022/03/10 04:16:07;;;;;;;17.57;15.20;;;-1.20;99.90;;;-0.52;71.05;98745.34;5205103;28;20197;-54
2022/03/10 04:18:41;;;;;;;16.40;13.87;;;-1.30;99.90;;;-0.57;70.71;98745.53;5205295;28;20228;-57
2022/03/10 04:21:14;;;;;;;16.50;14.70;;;-1.20;99.90;;;-0.55;70.02;98745.00;5205208;28;20224;-58
2022/03/10 04:23:47;;;;;;;16.30;14.60;;;-1.30;99.90;;;-0.61;69.56;98745.94;5203877;28;20554;-56
2022/03/10 04:26:22;;;;;;;18.20;15.23;;;-1.40;99.90;;;-0.62;70.08;98741.63;5204570;28;20198;-57
2022/03/10 04:28:55;;;;;;;16.47;14.77;;;-1.40;99.90;;;-0.64;70.77;98741.44;5204445;28;20225;-57
2022/03/10 04:31:28;;;;;;;17.60;15.57;;;-1.30;99.90;;;-0.71;69.94;98737.34;5204970;28;20934;-54
2022/03/10 04:34:01;;;;;;;20.93;16.03;;;-1.40;99.90;;;-0.71;71.25;98744.88;5205391;28;20251;-54
2022/03/10 04:36:34;;;;;;;18.27;15.33;;;-1.40;99.90;;;-0.69;70.91;98748.47;5204143;28;20201;-55
2022/03/10 04:39:07;;;;;;;21.37;16.67;;;-1.40;99.90;;;-0.66;70.16;98739.47;5204760;28;20240;-55
2022/03/10 04:41:42;;;;;;;19.20;15.43;;;-1.40;99.90;;;-0.70;71.48;98744.16;5203484;28;20205;-53
2022/03/10 04:44:15;;;;;;;20.50;16.87;;;-1.50;99.90;;;-0.79;70.88;98744.72;5205322;28;20201;-56
2022/03/10 04:46:48;;;;;;;19.10;16.03;;;-1.40;99.90;;;-0.83;71.68;98742.56;5204487;28;20205;-54
2022/03/10 04:49:21;;;;;;;18.77;15.47;;;-1.50;99.90;;;-0.86;70.68;98747.25;5203821;28;20222;-57
2022/03/10 04:51:54;;;;;;;19.07;15.93;;;-1.50;99.90;;;-0.83;72.04;98751.03;5202918;28;20229;-57
2022/03/10 04:54:27;;;;;;;18.33;15.73;;;-1.50;99.90;;;-0.81;72.20;98753.69;5204327;28;20686;-56
2022/03/10 04:57:01;;;;;;;17.53;15.63;;;-1.50;99.90;;;-0.69;71.06;98752.56;5204978;28;20247;-56
2022/03/10 04:59:35;;;;;;;17.47;15.40;;;-1.50;99.90;;;-0.74;70.69;98756.19;5204049;28;20227;-58
2022/03/10 05:02:08;;;;;;;16.43;14.00;;;-1.50;99.90;;;-0.76;70.52;98750.09;5203459;28;20549;-58
2022/03/10 05:04:41;;;;;;;18.23;14.80;;;-1.50;99.90;;;-0.76;70.47;98750.09;5204276;28;20577;-57
2022/03/10 05:07:14;;;;;;;19.43;14.77;;;-1.50;99.90;;;-0.63;71.46;98742.34;5203513;28;20256;-59
2022/03/10 05:09:47;;;;;;;18.67;15.13;;;-1.40;99.90;;;-0.65;71.20;98747.19;5204926;28;20709;-58
2022/03/10 05:12:21;;;;;;;17.13;13.83;;;-1.40;99.90;;;-0.72;70.29;98747.19;5203614;28;20591;-57
2022/03/10 05:14:55;;;;;;;16.33;14.43;;;-1.50;99.90;;;-0.75;72.03;98749.38;5203546;28;20204;-57
2022/03/10 05:17:28;;;;;;;20.17;15.57;;;-1.50;99.90;;;-0.75;70.59;98746.84;5203577;28;20202;-58
2022/03/10 05:20:01;;;;;;;18.13;15.17;;;-1.50;99.90;;;-0.84;71.11;98746.69;5203112;28;20285;-53
2022/03/10 05:22:47;;;;;;;18.17;14.30;;;-1.50;99.90;;;-0.79;70.66;98745.63;5204670;28;20725;-53
2022/03/10 05:25:24;;;;;;;17.77;15.13;;;-1.60;99.90;;;-0.81;71.52;98742.03;5198137;28;20213;-57
2022/03/10 05:27:58;;;;;;;18.57;15.23;;;-1.50;99.90;;;-0.77;71.07;98744.19;5202920;28;20571;-54
2022/03/10 05:30:31;;;;;;;17.43;14.93;;;-1.50;99.90;;;-0.75;71.90;98736.81;5201013;28;20228;-57
2022/03/10 05:33:04;;;;;;;16.40;14.67;;;-1.50;99.90;;;-0.80;72.15;98738.81;5203058;28;20196;-57
2022/03/10 05:35:38;;;;;;;16.53;14.27;;;-1.50;99.90;;;-0.75;71.07;98741.84;5206522;28;20573;-56
2022/03/10 05:38:11;;;;;;;16.20;14.47;;;-1.50;99.90;;;-0.78;70.62;98739.88;5208132;28;20225;-56
2022/03/10 05:40:46;;;;;;;17.33;14.40;;;-1.50;99.90;;;-0.79;71.58;98744.72;5206293;28;20221;-55
2022/03/10 05:43:21;;;;;;;17.47;14.70;;;-1.60;99.90;;;-0.77;71.26;98746.69;5207740;28;20204;-58
2022/03/10 05:45:54;;;;;;;15.57;13.97;;;-1.50;99.90;;;-0.76;71.28;98750.09;5207573;28;20235;-56
2022/03/10 05:48:27;;;;;;;15.90;13.50;;;-1.50;99.90;;;-0.76;72.30;98751.00;5203252;28;20230;-56
2022/03/10 05:51:00;;;;;;;16.27;14.57;;;-1.50;99.90;;;-0.79;71.29;98745.63;5207569;28;20221;-56
2022/03/10 05:53:33;;;;;;;14.07;12.60;;;-1.60;99.90;;;-0.79;71.99;98747.25;5206279;28;20210;-57
2022/03/10 05:56:06;;;;;;;16.17;14.03;;;-1.50;99.90;;;-0.81;73.04;98747.06;5203991;28;20205;-56
2022/03/10 05:58:40;;;;;;;16.17;13.60;;;-1.50;99.90;;;-0.76;72.79;98750.09;5206723;28;20225;-57
2022/03/10 06:01:14;;;;;;;18.30;15.47;;;-1.50;99.90;;;-0.75;71.61;98746.84;5204824;28;20205;-56
2022/03/10 06:03:48;;;;;;;15.97;14.23;;;-1.50;99.90;;;-0.82;71.90;98750.28;5205918;28;20283;-57
2022/03/10 06:06:21;;;;;;;15.73;13.87;;;-1.60;99.90;;;-0.69;71.35;98753.50;5207851;28;20240;-57
2022/03/10 06:08:54;;;;;;;15.67;14.07;;;-1.50;99.90;;;-0.72;71.78;98753.13;5207547;28;20612;-56
2022/03/10 06:11:27;;;;;;;18.17;14.97;;;-1.50;99.90;;;-0.77;71.42;98749.22;5205708;28;20222;-57
2022/03/10 06:14:01;;;;;;;16.30;14.30;;;-1.50;99.90;;;-0.76;71.37;98748.47;5207809;28;20205;-57
2022/03/10 06:16:34;;;;;;;18.33;13.97;;;-1.50;99.90;;;-0.77;71.71;98748.31;5207307;28;20202;-57
2022/03/10 06:19:09;;;;;;;15.97;14.23;;;-1.50;99.90;;;-0.75;72.49;98747.75;5207149;28;20248;-56
2022/03/10 06:21:42;;;;;;;15.57;13.80;;;-1.50;99.90;;;-0.55;72.60;98737.47;5206162;28;20193;-55
2022/03/10 06:24:15;;;;;;;16.27;14.23;;;-1.30;99.90;;;-0.20;72.79;98738.06;5203851;28;20182;-57
2022/03/10 06:26:48;;;;;;;14.97;13.37;;;-1.00;99.90;;;0.11;71.68;98751.53;5206080;28;20202;-57
2022/03/10 06:30:23;;;;;;;15.80;14.07;;;-0.70;99.90;;;0.59;69.07;98735.91;5207453;28;20225;-57
2022/03/10 06:32:58;;;;;;;15.87;13.87;;;-0.40;99.90;;;1.19;68.08;98738.97;5207804;28;20205;-56
2022/03/10 06:35:31;;;;;;;16.37;13.70;;;0.20;99.90;;;1.38;65.52;98736.81;5206405;28;20566;-57
2022/03/10 06:38:04;;;;;;;17.03;14.23;;;0.40;99.90;;;1.68;65.44;98742.56;5205392;28;20224;-56
2022/03/10 06:40:37;;;;;;;15.63;13.80;;;0.60;99.90;;;2.00;63.72;98735.88;5205294;28;20576;-56
2022/03/10 06:43:11;;;;;;;16.67;14.93;;;1.00;99.90;;;2.33;63.41;98736.66;5202905;28;20202;-57
2022/03/10 06:45:44;;;;;;;15.10;13.50;;;1.20;99.90;;;2.70;62.04;98737.13;5204940;28;20205;-56
2022/03/10 06:48:21;;;;;;;16.33;13.70;;;1.50;99.50;;;2.64;61.30;98726.44;5207064;28;20228;-56
2022/03/10 06:50:54;;;;;;;17.17;14.50;;;1.50;98.90;;;3.09;59.56;98731.81;5199893;28;20210;-54
2022/03/10 06:53:27;;;;;;;14.90;13.30;;;1.60;98.50;;;3.79;58.70;98735.31;5202332;28;20676;-60
2022/03/10 06:56:00;;;;;;;15.17;13.53;;;2.00;98.80;;;4.26;56.08;98735.56;5206287;28;20196;-56
2022/03/10 06:58:33;;;;;;;16.50;13.30;;;2.30;97.80;;;4.46;56.72;98730.78;5203627;28;20536;-58
2022/03/10 07:01:07;;;;;;;14.83;13.33;;;2.50;97.80;;;4.54;56.31;98733.13;5205672;28;20199;-58
2022/03/10 07:03:41;;;;;;;15.47;13.77;;;2.80;97.10;;;4.45;55.34;98731.50;5205816;28;20708;-58
2022/03/10 07:06:15;;;;;;;15.53;13.47;;;3.00;96.40;;;4.45;55.35;98733.13;5202222;28;20262;-58
2022/03/10 07:08:48;;;;;;;15.87;14.07;;;2.90;96.50;;;4.49;55.98;98732.66;5205211;28;20236;-58
2022/03/10 07:11:21;;;;;;;16.20;14.10;;;3.00;96.30;;;4.64;55.10;98735.78;5205486;28;20253;-58
2022/03/10 07:13:54;;;;;;;18.50;16.60;;;3.10;96.20;;;4.68;55.48;98737.84;5203636;28;20212;-58
2022/03/10 07:16:27;;;;;;;15.17;13.47;;;3.30;95.90;;;4.57;54.60;98746.06;5210223;28;20208;-54
2022/03/10 07:19:02;;;;;;;15.37;13.80;;;3.40;95.00;;;4.56;55.31;98741.75;5206171;28;20642;-56
2022/03/10 07:21:35;;;;;;;15.27;13.67;;;3.20;95.60;;;4.59;55.12;98748.00;5204901;28;20213;-58
2022/03/10 07:24:09;;;;;;;14.83;12.93;;;3.30;95.80;;;4.68;55.35;98753.91;5205855;28;20194;-57
2022/03/10 07:26:42;;;;;;;14.63;13.17;;;3.50;95.70;;;4.94;55.72;98752.94;5205366;28;20214;-58
2022/03/10 07:29:26;;;;;;;16.33;14.40;;;3.80;95.70;;;5.18;55.08;98754.31;5202051;28;20222;-58
2022/03/10 07:32:02;;;;;;;15.33;13.77;;;4.00;95.20;;;4.75;55.10;98760.47;5204449;28;20210;-58
2022/03/10 07:34:36;;;;;;;14.77;13.33;;;4.00;94.30;;;5.12;55.61;98763.88;5205895;28;20204;-53
2022/03/10 07:37:09;;;;;;;15.30;13.70;;;4.20;95.30;;;5.49;54.30;98764.72;5205086;28;20591;-55
2022/03/10 07:39:43;;;;;;;14.50;13.03;;;4.40;94.30;;;5.74;53.52;98758.56;5203200;28;20223;-56
2022/03/10 07:42:16;;;;;;;15.80;14.13;;;4.60;94.00;;;5.97;52.14;98758.13;5197083;28;20200;-57
2022/03/10 07:44:49;;;;;;;15.47;13.67;;;4.70;93.80;;;6.17;52.54;98764.97;5204828;28;20211;-53
2022/03/10 07:47:22;;;;;;;16.53;14.30;;;4.90;93.50;;;6.43;51.68;98758.78;5204914;28;20208;-56
2022/03/10 07:49:57;;;;;;;15.97;14.33;;;5.20;92.80;;;6.42;50.87;98765.50;5202539;28;20218;-57
2022/03/10 07:52:30;;;;;;;16.90;15.10;;;5.30;92.50;;;6.43;50.52;98763.84;5204834;28;20225;-55
2022/03/10 07:55:06;;;;;;;19.63;17.20;;;5.30;92.00;;;6.62;50.73;98754.53;5205247;28;20566;-57
2022/03/10 07:57:39;;;;;;;16.70;14.83;;;5.60;92.00;;;6.60;50.77;98753.50;5204030;28;20233;-58
2022/03/10 08:00:13;;;;;;;19.00;16.63;;;5.60;92.20;;;6.66;49.91;98754.03;5205370;28;20241;-56
2022/03/10 08:02:47;;;;;;;18.27;16.23;;;5.70;91.10;;;6.87;49.91;98749.03;5205372;28;20201;-56
2022/03/10 08:05:21;;;;;;;17.77;15.77;;;5.90;91.30;;;6.99;49.57;98750.09;5203898;28;20240;-57
2022/03/10 08:07:54;;;;;;;18.17;16.37;;;6.00;90.70;;;6.85;49.58;98750.56;5202902;28;20233;-57
2022/03/10 08:10:27;;;;;;;17.93;16.10;;;5.90;91.00;;;6.94;50.19;98752.22;5205615;28;20658;-58
2022/03/10 08:13:00;;;;;;;18.87;15.67;;;6.00;91.30;;;7.19;50.18;98750.13;5205513;28;20198;-57
2022/03/10 08:15:33;;;;;;;16.97;15.37;;;6.20;91.30;;;7.52;49.56;98753.69;5204823;28;20314;-57
2022/03/10 08:18:07;;;;;;;17.20;15.50;;;6.60;90.70;;;7.62;48.87;98743.53;5204641;28;20222;-58
2022/03/10 08:20:42;;;;;;;17.30;14.87;;;6.90;90.50;;;7.90;48.55;98745.78;5204559;28;20262;-58
2022/03/10 08:23:18;;;;;;;18.00;16.20;;;7.10;90.00;;;8.11;47.73;98742.44;5204471;28;20251;-58
2022/03/10 08:25:52;;;;;;;17.17;15.37;;;7.40;88.40;;;8.32;47.54;98737.28;5205257;28;20647;-57
2022/03/10 08:28:26;;;;;;;16.03;14.43;;;7.50;89.00;;;8.44;47.41;98737.38;5210368;28;20228;-58
2022/03/10 08:30:59;;;;;;;18.57;15.40;;;7.60;88.80;;;8.61;46.90;98734.50;5197100;28;20216;-57
2022/03/10 08:33:32;;;;;;;16.80;15.17;;;7.90;87.90;;;8.80;46.16;98736.84;5204978;28;20332;-57
2022/03/10 08:36:07;;;;;;;17.37;15.07;;;8.10;86.90;;;8.97;45.99;98727.97;5203210;28;20205;-59
2022/03/10 08:38:41;;;;;;;15.97;14.43;;;8.30;86.50;;;9.26;45.34;98727.66;5202398;28;20228;-59
2022/03/10 08:41:14;;;;;;;17.97;15.40;;;8.50;85.70;;;9.47;45.00;98723.25;5198382;28;20201;-56
2022/03/10 08:43:47;;;;;;;16.07;14.43;;;8.80;84.70;;;9.66;44.91;98725.53;5203700;28;20198;-58
2022/03/10 08:46:20;;;;;;;17.10;14.20;;;9.10;84.60;;;9.91;44.77;98721.47;5202273;28;20201;-58
2022/03/10 08:48:53;;;;;;;14.23;12.70;;;9.30;83.70;;;10.11;44.46;98719.50;5204176;28;20222;-56
2022/03/10 08:51:27;;;;;;;15.00;13.50;;;9.60;83.40;;;10.35;42.92;98713.63;5205238;28;20401;-58
2022/03/10 08:54:02;;;;;;;15.03;13.47;;;9.90;81.60;;;10.70;42.06;98714.34;5202396;28;20214;-55
2022/03/10 08:56:35;;;;;;;14.50;13.10;;;10.30;80.40;;;10.99;41.71;98716.38;5213807;28;20197;-58
2022/03/10 08:59:08;;;;;;;12.77;11.57;;;10.60;79.30;;;11.20;40.00;98715.28;5206352;28;20673;-59
2022/03/10 09:01:42;;;;;;;12.87;11.57;;;10.80;77.30;;;11.44;38.49;98702.38;5206228;28;20190;-58
2022/03/10 09:04:16;;;;;;;12.77;11.47;;;11.00;74.40;;;11.44;38.04;98694.69;5205566;28;20287;-59
2022/03/10 09:06:50;;;;;;;12.73;11.63;;;11.10;74.20;;;11.59;38.45;98695.75;5206140;28;20198;-55
2022/03/10 09:09:24;;;;;;;13.13;11.77;;;11.20;74.10;;;11.95;37.27;98694.72;5204698;28;20225;-58
2022/03/10 09:11:57;;;;;;;11.60;10.60;;;11.50;72.70;;;12.06;35.78;98692.84;5206512;28;20225;-59
2022/03/10 09:14:31;;;;;;;11.70;10.70;;;11.50;70.20;;;11.99;35.42;98685.56;5205957;28;20284;-60
2022/03/10 09:17:05;;;;;;;12.23;11.00;;;11.40;70.20;;;12.36;34.68;98688.81;5205598;28;20190;-57
2022/03/10 09:19:38;;;;;;;11.88;10.68;;;11.70;68.50;;;12.20;34.75;98683.50;5205125;28;20222;-58
2022/03/10 09:22:13;;;;;;;13.55;11.50;;;11.70;68.40;;;12.42;34.57;98677.16;5202783;28;20576;-57
2022/03/10 09:24:46;;;;;;;11.57;10.48;;;12.00;68.60;;;12.39;34.29;98676.19;5203377;28;20201;-60
2022/03/10 09:27:19;;;;;;;12.63;11.07;;;12.00;67.20;;;12.54;34.42;98678.81;5203187;28;20202;-57
2022/03/10 09:29:52;;;;;;;12.05;10.82;;;12.10;67.80;;;12.64;34.58;98670.00;5203077;28;20224;-57
2022/03/10 09:32:25;;;;;;;11.25;10.23;;;12.10;67.80;;;12.77;34.21;98674.25;5203505;28;20228;-59
2022/03/10 09:34:58;;;;;;;10.20;9.18;;;12.30;67.00;;;12.97;32.77;98667.75;5202843;28;20198;-59
2022/03/10 09:37:33;;;;;;;9.38;8.48;;;12.40;65.70;;;12.77;32.29;98674.25;5202750;28;20673;-58
2022/03/10 09:40:09;;;;;;;8.20;7.40;;;12.30;64.40;;;12.72;32.06;98667.94;5203612;28;20201;-59
2022/03/10 09:42:44;;;;;;;9.02;8.13;;;12.30;63.00;;;12.78;32.58;98664.06;5204581;28;20679;-60
2022/03/10 09:45:19;;;;;;;8.55;7.75;;;12.30;64.60;;;13.04;31.86;98663.06;5203157;28;20669;-58
2022/03/10 09:47:52;;;;;;;8.13;7.43;;;12.70;63.40;;;13.04;31.54;98662.19;5203700;28;20478;-60
2022/03/10 09:50:25;;;;;;;7.70;7.00;;;12.70;62.50;;;12.90;31.87;98661.34;5203829;28;20582;-60
2022/03/10 09:52:59;;;;;;;7.28;6.60;;;12.50;62.80;;;13.06;30.98;98656.34;5203669;28;20764;-57
2022/03/10 09:55:32;;;;;;;6.85;6.35;;;12.60;62.10;;;13.22;31.90;98653.03;5203531;28;20488;-58
2022/03/10 09:58:07;;;;;;;7.55;6.85;;;12.90;62.50;;;13.31;30.71;98659.56;5203216;28;20226;-61
2022/03/10 10:00:40;;;;;;;7.00;6.30;;;13.00;61.20;;;13.03;31.01;98651.03;5203310;28;20199;-60
2022/03/10 10:03:13;;;;;;;7.10;6.13;;;12.70;61.30;;;13.18;30.56;98665.59;5200719;28;20198;-59
2022/03/10 10:05:47;;;;;;;7.00;6.40;;;12.70;61.00;;;13.26;30.25;98661.84;5200134;28;20619;-58
2022/03/10 10:08:21;;;;;;;6.72;6.13;;;12.90;60.90;;;13.28;31.08;98653.44;5203168;28;20237;-58
2022/03/10 10:10:56;;;;;;;6.95;6.35;;;12.80;61.50;;;13.16;30.13;98657.81;5203301;28;20552;-57
2022/03/10 10:13:32;;;;;;;7.30;6.63;;;12.80;60.50;;;13.31;30.91;98650.16;5203365;28;20409;-59
2022/03/10 10:16:07;;;;;;;7.05;6.45;;;12.90;60.10;;;12.87;30.28;98653.47;5203746;28;20249;-57
2022/03/10 10:18:42;;;;;;;7.68;5.90;;;12.70;59.70;;;13.12;30.88;98648.13;5205185;28;20283;-59
2022/03/10 10:21:22;;;;;;;6.43;5.82;;;12.70;61.30;;;13.29;30.13;98659.44;5203561;28;20194;-59
2022/03/10 10:23:56;;;;;;;6.70;6.10;;;12.80;60.00;;;13.30;30.56;98645.81;5207365;28;20315;-58
2022/03/10 10:26:32;;;;;;;7.18;6.57;;;12.80;59.70;;;13.36;30.19;98638.44;5207457;28;20197;-59
2022/03/10 10:29:06;;;;;;;6.82;6.22;;;12.90;60.10;;;13.38;29.35;98642.00;5205760;28;20222;-58
2022/03/10 10:31:39;;;;;;;6.65;6.05;;;12.90;59.10;;;13.45;30.63;98636.44;5202272;28;20195;-58
2022/03/10 10:34:12;;;;;;;6.63;5.95;;;12.90;59.70;;;13.56;29.55;98643.88;5206763;28;20216;-59
2022/03/10 10:36:52;;;;;;;6.68;6.07;;;13.10;59.40;;;13.57;29.59;98640.53;5206692;28;20198;-57
2022/03/10 10:39:26;;;;;;;6.47;5.88;;;13.10;59.50;;;13.48;29.69;98634.06;5207328;28;20586;-59
2022/03/10 10:41:59;;;;;;;7.00;6.32;;;13.20;59.80;;;13.83;29.95;98637.75;5205809;28;20330;-59
2022/03/10 10:44:32;;;;;;;6.13;5.63;;;13.40;59.60;;;13.95;29.40;98630.72;5203335;28;20277;-59
2022/03/10 10:47:06;;;;;;;6.45;5.85;;;13.60;58.60;;;14.05;28.40;98627.00;5206046;28;20206;-58